CheckWX is a tool to help pilots better visualize weather data.  It is not intended as a substitute for an official pre-flight weather briefing.

05:58:35 UTC

KLNP METAR
Lonesome Pine Airport
Wise, Virginia, USA
Current

24 mins ago

KLNP 240535Z AUTO 19010KT 10SM -RA BKN013 BKN021 OVC065 13/13 A2983 RMK AO2 P0002
Observed
Feb-24 @ 05:35 UTC
Wind
  • 190° at 10 KTS
Visibility
10 SM
Flight Rules
MVFR
Conditions
Light Rain
Cloud Levels
  • Broken at 1,300' AGL
  • Broken at 2,100' AGL
  • Overcast at 6,500' AGL
Temperature
13°C / 55°F
Dewpoint
13°C / 55°F
Humidity
100%
Altimeter
29.83" Hg
Pressure
1010.12 hPa
Current Rain
0.02"
Previous

44 mins ago

KLNP 240515Z AUTO 19009G18KT 10SM -RA OVC017 13/13 A2984 RMK AO2 P0001
Observed
Feb-24 @ 05:15 UTC
Wind
  • 190° at 9 KTS
  • Gusting to 18 KTS
Visibility
10 SM
Flight Rules
MVFR
Conditions
Light Rain
Cloud Levels
  • Overcast at 1,700' AGL
Temperature
13°C / 55°F
Dewpoint
13°C / 55°F
Humidity
100%
Altimeter
29.84" Hg
Pressure
1010.52 hPa
Current Rain
0.01"
Previous

1 hour ago

KLNP 240455Z AUTO 19015KT 10SM -RA BKN015 OVC025 13/13 A2985 RMK AO2 P0004
Observed
Feb-24 @ 04:55 UTC
Wind
  • 190° at 15 KTS
Visibility
10 SM
Flight Rules
MVFR
Conditions
Light Rain
Cloud Levels
  • Broken at 1,500' AGL
  • Overcast at 2,500' AGL
Temperature
13°C / 55°F
Dewpoint
13°C / 55°F
Humidity
100%
Altimeter
29.85" Hg
Pressure
1010.82 hPa
Current Rain
0.04"